createdAt,value
2019-02-12T00:03:50.906Z,3.40
2019-02-12T00:08:26.691Z,3.20
2019-02-12T00:13:02.477Z,3.20
2019-02-12T00:17:38.249Z,3.20
2019-02-12T00:26:47.614Z,3.30
2019-02-12T00:31:23.375Z,3.30
2019-02-12T00:35:59.152Z,3.20
2019-02-12T00:40:34.908Z,3.30
2019-02-12T00:45:11.226Z,3.20
2019-02-12T00:49:47.592Z,3.30
2019-02-12T00:54:24.185Z,3.30
2019-02-12T00:59:00.181Z,3.10
2019-02-12T01:03:35.948Z,2.90
2019-02-12T01:08:11.709Z,3.00
2019-02-12T01:12:47.489Z,3.00
2019-02-12T01:17:23.569Z,3.10
2019-02-12T01:21:59.354Z,3.20
2019-02-12T01:26:35.116Z,3.30
2019-02-12T01:31:10.896Z,3.30
2019-02-12T01:35:46.653Z,3.20
2019-02-12T01:40:22.433Z,3.20
2019-02-12T01:44:58.199Z,3.30
2019-02-12T01:49:33.964Z,3.30
2019-02-12T01:54:09.729Z,3.30
2019-02-12T01:58:45.497Z,3.40
2019-02-12T02:03:21.245Z,3.50
2019-02-12T02:07:57.022Z,3.50
2019-02-12T02:12:32.788Z,3.40
2019-02-12T02:17:08.561Z,3.40
2019-02-12T02:21:44.422Z,3.70
2019-02-12T02:26:20.501Z,3.60
2019-02-12T02:30:56.257Z,3.40
2019-02-12T02:35:32.044Z,3.30
2019-02-12T02:40:08.772Z,3.30
2019-02-12T02:44:44.537Z,3.20
2019-02-12T02:49:20.272Z,3.10
2019-02-12T02:53:56.044Z,3.10
2019-02-12T02:58:31.811Z,3.20
2019-02-12T03:03:07.603Z,3.20
2019-02-12T03:07:43.368Z,3.20
2019-02-12T03:12:19.155Z,3.30
2019-02-12T03:16:54.909Z,3.40
2019-02-12T03:21:30.696Z,3.20
2019-02-12T03:26:06.590Z,3.10
2019-02-12T03:30:42.399Z,3.00
2019-02-12T03:35:18.170Z,3.00
2019-02-12T03:39:53.934Z,3.10
2019-02-12T03:44:29.705Z,3.20
2019-02-12T03:49:05.466Z,3.30
2019-02-12T03:53:41.516Z,3.30
2019-02-12T03:58:17.323Z,3.40
2019-02-12T04:03:01.239Z,3.40
2019-02-12T04:07:37.022Z,3.40
2019-02-12T04:12:12.790Z,3.20
2019-02-12T04:16:48.962Z,3.20
2019-02-12T04:21:24.798Z,3.00
2019-02-12T04:26:00.596Z,3.10
2019-02-12T04:30:36.769Z,3.10
2019-02-12T04:35:12.537Z,3.20
2019-02-12T04:39:48.301Z,3.30
2019-02-12T04:44:24.083Z,3.30
2019-02-12T04:48:59.848Z,3.20
2019-02-12T04:53:35.659Z,3.20
2019-02-12T04:58:11.489Z,3.10
2019-02-12T05:02:47.273Z,3.10
2019-02-12T05:07:23.046Z,3.00
2019-02-12T05:12:01.509Z,3.00
2019-02-12T05:16:37.259Z,2.80
2019-02-12T05:21:13.121Z,2.80
2019-02-12T05:25:48.898Z,3.00
2019-02-12T05:30:24.746Z,3.00
2019-02-12T05:35:00.597Z,3.10
2019-02-12T05:39:36.478Z,3.00
2019-02-12T05:44:12.249Z,3.10
2019-02-12T05:48:48.045Z,3.10
2019-02-12T05:53:23.813Z,2.90
2019-02-12T05:57:59.609Z,2.90
2019-02-12T06:02:35.434Z,2.90
2019-02-12T06:07:11.228Z,3.00
2019-02-12T06:11:46.987Z,3.00
2019-02-12T06:16:22.758Z,2.80
2019-02-12T06:20:58.525Z,3.00
2019-02-12T06:25:34.409Z,2.90
2019-02-12T06:30:10.369Z,2.90
2019-02-12T06:34:46.158Z,3.10
2019-02-12T06:39:21.933Z,3.20
2019-02-12T06:43:57.709Z,3.10
2019-02-12T06:48:33.462Z,3.00
2019-02-12T06:53:12.479Z,3.20
2019-02-12T06:57:46.688Z,3.30
2019-02-12T07:02:58.424Z,3.10
2019-02-12T07:08:05.888Z,2.90
2019-02-12T07:13:22.613Z,2.90
2019-02-12T07:18:24.321Z,3.10
2019-02-12T07:28:32.610Z,3.30
2019-02-12T07:33:45.196Z,3.30
2019-02-12T07:38:45.206Z,3.30
2019-02-12T07:43:48.539Z,3.50
2019-02-12T07:48:52.822Z,3.50
2019-02-12T07:54:14.050Z,3.40
2019-02-12T07:59:01.100Z,3.60
2019-02-12T08:04:06.025Z,3.70
2019-02-12T08:09:11.640Z,3.70
2019-02-12T08:19:20.649Z,3.90
2019-02-12T08:24:18.434Z,4.10
2019-02-12T08:29:29.418Z,4.10
2019-02-12T08:39:12.027Z,4.10
2019-02-12T08:44:19.238Z,4.20
2019-02-12T08:49:30.710Z,4.20
2019-02-12T08:54:46.201Z,4.20
2019-02-12T08:59:46.974Z,4.20
2019-02-12T09:04:59.377Z,4.10
2019-02-12T09:14:52.816Z,4.00
2019-02-12T09:19:36.544Z,4.20
2019-02-12T09:24:59.973Z,4.30
2019-02-12T09:30:20.792Z,4.30
2019-02-12T09:35:18.321Z,4.50
2019-02-12T09:40:18.575Z,4.60
2019-02-12T09:45:14.694Z,4.70
2019-02-12T09:50:41.480Z,4.80
2019-02-12T10:00:45.130Z,5.20
2019-02-12T10:05:53.009Z,5.30
2019-02-12T10:10:49.891Z,5.30
2019-02-12T10:15:52.574Z,5.40
2019-02-12T10:20:37.881Z,5.60
2019-02-12T10:25:27.282Z,5.90
2019-02-12T10:30:24.627Z,6.00
2019-02-12T10:35:00.395Z,6.10
2019-02-12T10:39:36.152Z,6.00
2019-02-12T10:44:12.014Z,6.10
2019-02-12T10:48:47.822Z,6.10
2019-02-12T10:53:23.663Z,6.20
2019-02-12T10:57:59.439Z,6.30
2019-02-12T11:02:35.244Z,6.30
2019-02-12T11:07:11.001Z,6.40
2019-02-12T11:11:46.794Z,6.60
2019-02-12T11:16:22.551Z,6.40
2019-02-12T11:20:58.324Z,6.50
2019-02-12T11:25:34.097Z,6.60
2019-02-12T11:30:09.904Z,6.50
2019-02-12T11:34:45.660Z,6.60
2019-02-12T11:39:21.436Z,6.80
2019-02-12T11:43:57.201Z,6.80
2019-02-12T11:48:32.984Z,6.70
2019-02-12T11:53:08.793Z,6.70
2019-02-12T11:57:44.587Z,6.80
2019-02-12T12:02:21.916Z,6.90
2019-02-12T12:06:58.090Z,6.90
2019-02-12T12:11:34.092Z,6.90
2019-02-12T12:16:11.204Z,6.90
2019-02-12T12:20:47.213Z,6.80
2019-02-12T12:25:23.025Z,6.70
2019-02-12T12:29:59.221Z,6.70
2019-02-12T12:34:35.005Z,6.80
2019-02-12T12:39:10.768Z,6.60
2019-02-12T12:43:46.555Z,6.60
2019-02-12T12:48:22.342Z,6.80
2019-02-12T12:52:58.112Z,6.70
2019-02-12T12:57:41.322Z,6.80
2019-02-12T13:02:11.426Z,6.80
2019-02-12T13:06:47.453Z,6.80
2019-02-12T13:11:23.237Z,6.80
2019-02-12T13:15:59.124Z,6.70
2019-02-12T13:20:34.900Z,6.80
2019-02-12T13:25:11.460Z,6.80
2019-02-12T13:29:47.557Z,6.70
2019-02-12T13:34:25.048Z,6.80
2019-02-12T13:39:20.245Z,6.70
2019-02-12T13:43:56.024Z,6.60
2019-02-12T13:48:31.814Z,6.70
2019-02-12T13:53:07.585Z,6.70
2019-02-12T13:57:43.389Z,6.80
2019-02-12T14:02:19.158Z,6.60
2019-02-12T14:06:54.956Z,6.70
2019-02-12T14:11:31.693Z,6.80
2019-02-12T14:16:06.769Z,6.80
2019-02-12T14:20:42.530Z,6.90
2019-02-12T14:25:25.243Z,6.90
2019-02-12T14:29:55.992Z,7.00
2019-02-12T14:34:31.788Z,7.00
2019-02-12T14:39:07.567Z,7.00
2019-02-12T14:43:43.865Z,6.90
2019-02-12T14:48:19.838Z,7.00
2019-02-12T14:52:55.616Z,6.90
2019-02-12T14:57:31.434Z,6.80
2019-02-12T15:02:07.432Z,6.70
2019-02-12T15:06:43.185Z,6.50
2019-02-12T15:11:19.008Z,6.50
2019-02-12T15:15:54.785Z,6.50
2019-02-12T15:20:30.805Z,6.60
2019-02-12T15:25:07.259Z,6.60
2019-02-12T15:29:43.060Z,6.50
2019-02-12T15:34:18.825Z,6.60
2019-02-12T15:38:54.932Z,6.60
2019-02-12T15:43:30.808Z,6.50
2019-02-12T15:48:06.801Z,6.40
2019-02-12T15:52:42.704Z,6.30
2019-02-12T15:57:18.495Z,6.30
2019-02-12T16:01:54.481Z,6.30
2019-02-12T16:06:30.625Z,6.30
2019-02-12T16:11:06.649Z,6.20
2019-02-12T16:15:43.519Z,6.00
2019-02-12T16:20:20.214Z,5.90
2019-02-12T16:24:55.997Z,5.70
2019-02-12T16:29:31.810Z,5.50
2019-02-12T16:34:07.762Z,5.50
2019-02-12T16:38:43.750Z,5.70
2019-02-12T16:43:19.549Z,5.70
2019-02-12T16:47:55.901Z,5.70
2019-02-12T16:52:31.684Z,5.60
2019-02-12T16:57:07.661Z,5.50
2019-02-12T17:01:43.520Z,5.50
2019-02-12T17:06:19.293Z,5.50
2019-02-12T17:10:55.114Z,5.50
2019-02-12T17:15:31.050Z,5.30
2019-02-12T17:20:10.097Z,5.30
2019-02-12T17:24:45.860Z,5.30
2019-02-12T17:29:21.625Z,5.20
2019-02-12T17:33:57.392Z,5.10
2019-02-12T17:38:33.185Z,5.10
2019-02-12T17:43:09.022Z,5.10
2019-02-12T17:47:44.793Z,5.00
2019-02-12T17:52:20.556Z,4.90
2019-02-12T17:56:56.371Z,4.90
2019-02-12T18:01:32.136Z,4.80
2019-02-12T18:06:07.922Z,4.70
2019-02-12T18:10:43.684Z,4.70
2019-02-12T18:15:19.548Z,4.70
2019-02-12T18:19:55.513Z,4.60
2019-02-12T18:24:31.301Z,4.50
2019-02-12T18:29:07.073Z,4.50
2019-02-12T18:33:42.861Z,4.50
2019-02-12T18:38:18.625Z,4.50
2019-02-12T18:42:54.413Z,4.50
2019-02-12T18:47:30.170Z,4.40
2019-02-12T18:52:07.064Z,4.40
2019-02-12T18:56:42.830Z,4.30
2019-02-12T19:01:18.629Z,4.30
2019-02-12T19:05:54.409Z,4.30
2019-02-12T19:10:30.211Z,4.30
2019-02-12T19:15:07.324Z,4.20
2019-02-12T19:19:43.308Z,4.20
2019-02-12T19:24:19.156Z,4.10
2019-02-12T19:28:54.958Z,4.10
2019-02-12T19:33:30.790Z,4.10
2019-02-12T19:38:06.556Z,4.10
2019-02-12T19:42:44.401Z,4.00
2019-02-12T19:47:20.307Z,4.00
2019-02-12T19:51:56.076Z,4.00
2019-02-12T19:56:31.941Z,3.90
2019-02-12T20:01:07.713Z,3.80
2019-02-12T20:05:43.501Z,3.70
2019-02-12T20:10:19.275Z,3.70
2019-02-12T20:14:55.054Z,3.70
2019-02-12T20:19:30.825Z,3.50
2019-02-12T20:24:07.858Z,3.60
2019-02-12T20:28:43.620Z,3.60
2019-02-12T20:33:19.421Z,3.20
2019-02-12T20:37:55.185Z,3.10
2019-02-12T20:42:31.004Z,2.90
2019-02-12T20:47:06.884Z,2.80
2019-02-12T20:51:42.710Z,3.00
2019-02-12T20:56:18.561Z,2.90
2019-02-12T21:00:54.610Z,2.80
2019-02-12T21:10:07.675Z,2.80
2019-02-12T21:14:43.432Z,2.60
2019-02-12T21:19:19.205Z,2.70
2019-02-12T21:23:54.964Z,2.70
2019-02-12T21:28:30.776Z,2.50
2019-02-12T21:33:08.370Z,2.70
2019-02-12T21:37:44.150Z,2.70
2019-02-12T21:42:19.988Z,2.70
2019-02-12T21:46:55.819Z,2.70
2019-02-12T21:51:31.594Z,2.70
2019-02-12T21:56:07.373Z,2.80
2019-02-12T22:00:43.132Z,2.80
2019-02-12T22:05:18.926Z,2.80
2019-02-12T22:09:54.717Z,2.80
2019-02-12T22:14:31.129Z,2.80
2019-02-12T22:19:06.985Z,2.70
2019-02-12T22:23:42.777Z,2.70
2019-02-12T22:28:18.545Z,2.60
2019-02-12T22:32:54.377Z,2.50
2019-02-12T22:37:30.228Z,2.50
2019-02-12T22:42:06.002Z,2.50
2019-02-12T22:46:41.753Z,2.50
2019-02-12T22:51:17.537Z,2.60
2019-02-12T22:55:53.286Z,2.60
2019-02-12T23:00:39.861Z,2.70
2019-02-12T23:05:15.604Z,2.60
2019-02-12T23:09:51.376Z,2.60
2019-02-12T23:14:27.135Z,2.70
2019-02-12T23:19:02.919Z,2.60
2019-02-12T23:23:38.676Z,2.70
2019-02-12T23:28:14.457Z,2.70
2019-02-12T23:32:50.205Z,2.80
2019-02-12T23:37:26.004Z,2.70
2019-02-12T23:42:01.757Z,2.60
2019-02-12T23:46:37.545Z,2.50
2019-02-12T23:51:13.309Z,2.50
2019-02-12T23:55:49.096Z,2.40
